New York, NY (10033)

10:24 PM EST on February 09, 2016 (GMT -0500)
Bronx Community College | | Change Station
CLOSE
Current Station
Personal Weather Station
Location: New York, NY
Elevation: 184 ft
Nearby Weather Stations

Elev 184 ft 40.86 °N, 73.91 °W | Updated 10 minutes ago

Overcast
Overcast
32.4 °F
Feels Like 29 °F
N
3.5
Wind Variable Wind from SSE
Gusts 0.0 mph

Today
High -- | Low -- °F
--% Chance of Precip.
Yesterday
High -- | Low -- °F
Precip. -- in
Pressure 29.62 in
Visibility 10.0 miles
Clouds Mostly Cloudy 1900 ft
Overcast 2400 ft
Windchill 29 °F
Dew Point 30 °F
Humidity 90%
Rainfall 0.02 in
Snow Depth Not available.
6:57 AM 5:22 PM
Waxing Crescent, 3% visible
METAR KLGA 100251Z 13005KT 10SM BKN019 OVC024 01/M04 A2962 RMK AO2 SNE24 SLP029 P0000 60000 T00061044 50003 $
Pressure 29.62 in
Visibility 10.0 miles
Clouds Mostly Cloudy 1900 ft
Overcast 2400 ft
Windchill 29 °F
Dew Point 30 °F
Humidity 90%
Rainfall 0.02 in
Snow Depth Not available.
6:57 AM 5:22 PM
Waxing Crescent, 3% visible
METAR KLGA 100251Z 13005KT 10SM BKN019 OVC024 01/M04 A2962 RMK AO2 SNE24 SLP029 P0000 60000 T00061044 50003 $
Winter Storm Nacio, the third winter storm in five days to affect the Northeast, is bringing pockets of locally heavy snow to parts of the Ohio Valley, Appalachians and mid-Atlantic states Tuesday. Winter storm warnings are posted for parts of southern Pennsylvania, southern Ohio and the higher peaks of the Appalachians. Winter weather advisories, generally for lighter snow accumulations, stretch from northeast Alabama and far north Georgia to southern Connecticut and Long Island.

10-Day Weather Forecast

Almanac

Astronomy

Feb. 09, 2016 Rise Set
Actual Time
Civil Twilight
Nautical Twilight
Astronomical Twilight
Moon
Length of Visible Light
Length of Day
Tomorrow will be .
, % of the Moon is Illuminated

Today's Extremes

State Highs State Lows

Community

WunderPhotos

Upload Photos

1,891,792 photos uploaded!

WunderBlog® & News

Nearby

Air Quality

  Air Quality AQ Index Pollutant
Not available.

Snow Depth

Station Depth Elevation

Earthquake Activity

City Distance Mag. Time & Date
Minimum magnitude displayed is 2.5.

Coastal Water Temperatures

Place Temperature

Stations

Nearby Weather Stations

Station Location Temp. Windchill Dew Point Humidity Wind Precip. Elev Updated Type
                   

Watches & Warnings

There are currently no watches in effect.